sensor_id;sensor_type;location;lat;lon;timestamp;P1;durP1;ratioP1;P2;durP2;ratioP2
16468;SDS011;8345;50.902;6.956;2022-09-28T00:01:49;2.00;;;1.40;;
16468;SDS011;8345;50.902;6.956;2022-09-28T00:04:16;2.33;;;1.43;;
16468;SDS011;8345;50.902;6.956;2022-09-28T00:06:44;2.60;;;1.50;;
16468;SDS011;8345;50.902;6.956;2022-09-28T00:09:13;1.87;;;1.30;;
16468;SDS011;8345;50.902;6.956;2022-09-28T00:11:41;3.53;;;1.70;;
16468;SDS011;8345;50.902;6.956;2022-09-28T00:14:08;2.57;;;1.80;;
16468;SDS011;8345;50.902;6.956;2022-09-28T00:16:36;2.80;;;1.70;;
16468;SDS011;8345;50.902;6.956;2022-09-28T00:19:04;4.93;;;1.83;;
16468;SDS011;8345;50.902;6.956;2022-09-28T00:21:33;2.73;;;1.60;;
16468;SDS011;8345;50.902;6.956;2022-09-28T00:24:01;2.50;;;1.70;;
16468;SDS011;8345;50.902;6.956;2022-09-28T00:26:41;2.83;;;1.60;;
16468;SDS011;8345;50.902;6.956;2022-09-28T00:29:12;1.40;;;1.10;;
16468;SDS011;8345;50.902;6.956;2022-09-28T00:31:40;2.37;;;1.47;;
16468;SDS011;8345;50.902;6.956;2022-09-28T00:34:07;3.63;;;1.50;;
16468;SDS011;8345;50.902;6.956;2022-09-28T00:36:34;2.73;;;1.27;;
16468;SDS011;8345;50.902;6.956;2022-09-28T00:39:03;1.87;;;1.30;;
16468;SDS011;8345;50.902;6.956;2022-09-28T00:41:30;1.53;;;1.30;;
16468;SDS011;8345;50.902;6.956;2022-09-28T00:47:00;3.20;;;1.00;;
16468;SDS011;8345;50.902;6.956;2022-09-28T00:49:30;3.77;;;1.30;;
16468;SDS011;8345;50.902;6.956;2022-09-28T00:51:59;1.17;;;1.00;;
16468;SDS011;8345;50.902;6.956;2022-09-28T00:54:27;0.80;;;0.80;;
16468;SDS011;8345;50.902;6.956;2022-09-28T00:56:54;1.50;;;1.10;;
16468;SDS011;8345;50.902;6.956;2022-09-28T00:59:21;2.07;;;1.13;;
16468;SDS011;8345;50.902;6.956;2022-09-28T01:01:49;2.57;;;0.97;;
16468;SDS011;8345;50.902;6.956;2022-09-28T01:04:18;1.70;;;1.20;;
16468;SDS011;8345;50.902;6.956;2022-09-28T01:06:45;1.23;;;1.10;;
16468;SDS011;8345;50.902;6.956;2022-09-28T01:09:13;1.43;;;0.97;;
16468;SDS011;8345;50.902;6.956;2022-09-28T01:11:41;2.00;;;1.03;;
16468;SDS011;8345;50.902;6.956;2022-09-28T01:14:09;1.13;;;1.00;;
16468;SDS011;8345;50.902;6.956;2022-09-28T01:16:39;0.70;;;0.70;;
16468;SDS011;8345;50.902;6.956;2022-09-28T01:19:11;1.70;;;1.13;;
16468;SDS011;8345;50.902;6.956;2022-09-28T01:21:48;1.93;;;1.00;;
16468;SDS011;8345;50.902;6.956;2022-09-28T01:27:13;1.10;;;0.73;;
16468;SDS011;8345;50.902;6.956;2022-09-28T01:29:50;0.70;;;0.70;;
16468;SDS011;8345;50.902;6.956;2022-09-28T01:32:22;2.43;;;1.13;;
16468;SDS011;8345;50.902;6.956;2022-09-28T01:34:52;1.27;;;0.87;;
16468;SDS011;8345;50.902;6.956;2022-09-28T01:37:23;1.47;;;0.87;;
16468;SDS011;8345;50.902;6.956;2022-09-28T01:39:52;2.03;;;1.20;;
16468;SDS011;8345;50.902;6.956;2022-09-28T01:42:22;1.83;;;1.00;;
16468;SDS011;8345;50.902;6.956;2022-09-28T01:44:51;1.73;;;0.83;;
16468;SDS011;8345;50.902;6.956;2022-09-28T01:47:21;1.47;;;1.00;;
16468;SDS011;8345;50.902;6.956;2022-09-28T01:49:50;1.83;;;1.10;;
16468;SDS011;8345;50.902;6.956;2022-09-28T01:52:20;1.23;;;1.13;;
16468;SDS011;8345;50.902;6.956;2022-09-28T01:54:48;2.57;;;1.10;;
16468;SDS011;8345;50.902;6.956;2022-09-28T01:57:17;1.30;;;1.00;;
16468;SDS011;8345;50.902;6.956;2022-09-28T01:59:48;1.17;;;1.07;;
16468;SDS011;8345;50.902;6.956;2022-09-28T02:02:19;2.63;;;1.00;;
16468;SDS011;8345;50.902;6.956;2022-09-28T02:04:48;1.67;;;1.10;;
16468;SDS011;8345;50.902;6.956;2022-09-28T02:07:19;1.43;;;1.27;;
16468;SDS011;8345;50.902;6.956;2022-09-28T02:09:50;2.13;;;1.27;;
16468;SDS011;8345;50.902;6.956;2022-09-28T02:12:22;1.10;;;1.00;;
16468;SDS011;8345;50.902;6.956;2022-09-28T02:14:53;3.77;;;1.20;;
16468;SDS011;8345;50.902;6.956;2022-09-28T02:17:21;1.77;;;1.20;;
16468;SDS011;8345;50.902;6.956;2022-09-28T02:19:48;3.27;;;1.27;;
16468;SDS011;8345;50.902;6.956;2022-09-28T02:22:18;2.07;;;1.40;;
16468;SDS011;8345;50.902;6.956;2022-09-28T02:24:51;3.13;;;1.60;;
16468;SDS011;8345;50.902;6.956;2022-09-28T02:27:20;2.87;;;1.60;;
16468;SDS011;8345;50.902;6.956;2022-09-28T02:29:52;2.83;;;1.60;;
16468;SDS011;8345;50.902;6.956;2022-09-28T02:32:19;3.03;;;1.70;;
16468;SDS011;8345;50.902;6.956;2022-09-28T02:34:46;2.17;;;1.97;;
16468;SDS011;8345;50.902;6.956;2022-09-28T02:37:13;2.07;;;1.70;;
16468;SDS011;8345;50.902;6.956;2022-09-28T02:39:40;2.93;;;1.93;;
16468;SDS011;8345;50.902;6.956;2022-09-28T02:42:10;3.23;;;2.13;;
16468;SDS011;8345;50.902;6.956;2022-09-28T02:44:44;4.00;;;2.50;;
16468;SDS011;8345;50.902;6.956;2022-09-28T02:47:18;4.23;;;2.53;;
16468;SDS011;8345;50.902;6.956;2022-09-28T02:49:49;5.20;;;2.70;;
16468;SDS011;8345;50.902;6.956;2022-09-28T02:52:32;3.63;;;2.70;;
16468;SDS011;8345;50.902;6.956;2022-09-28T02:55:06;3.70;;;2.70;;
16468;SDS011;8345;50.902;6.956;2022-09-28T02:57:40;3.47;;;2.83;;
16468;SDS011;8345;50.902;6.956;2022-09-28T03:00:13;5.03;;;3.00;;
16468;SDS011;8345;50.902;6.956;2022-09-28T03:02:45;4.20;;;2.83;;
16468;SDS011;8345;50.902;6.956;2022-09-28T03:05:15;5.07;;;3.10;;
16468;SDS011;8345;50.902;6.956;2022-09-28T03:07:46;6.60;;;3.23;;
16468;SDS011;8345;50.902;6.956;2022-09-28T03:10:18;4.80;;;3.50;;
16468;SDS011;8345;50.902;6.956;2022-09-28T03:12:48;5.50;;;3.73;;
16468;SDS011;8345;50.902;6.956;2022-09-28T03:15:19;3.40;;;3.10;;
16468;SDS011;8345;50.902;6.956;2022-09-28T03:17:48;4.03;;;3.23;;
16468;SDS011;8345;50.902;6.956;2022-09-28T03:20:15;3.83;;;3.33;;
16468;SDS011;8345;50.902;6.956;2022-09-28T03:22:42;3.77;;;3.43;;
16468;SDS011;8345;50.902;6.956;2022-09-28T03:25:09;3.73;;;3.30;;
16468;SDS011;8345;50.902;6.956;2022-09-28T03:27:37;4.07;;;3.60;;
16468;SDS011;8345;50.902;6.956;2022-09-28T03:30:04;4.90;;;3.60;;
16468;SDS011;8345;50.902;6.956;2022-09-28T03:32:32;4.43;;;3.47;;
16468;SDS011;8345;50.902;6.956;2022-09-28T03:35:00;3.87;;;3.57;;
16468;SDS011;8345;50.902;6.956;2022-09-28T03:37:28;4.13;;;3.70;;
16468;SDS011;8345;50.902;6.956;2022-09-28T03:39:55;6.73;;;4.50;;
16468;SDS011;8345;50.902;6.956;2022-09-28T03:42:22;5.03;;;3.90;;
16468;SDS011;8345;50.902;6.956;2022-09-28T03:44:49;5.97;;;4.43;;
16468;SDS011;8345;50.902;6.956;2022-09-28T03:47:17;5.13;;;4.63;;
16468;SDS011;8345;50.902;6.956;2022-09-28T03:49:44;4.80;;;4.30;;
16468;SDS011;8345;50.902;6.956;2022-09-28T03:52:13;5.30;;;4.37;;
16468;SDS011;8345;50.902;6.956;2022-09-28T03:54:40;7.60;;;5.00;;
16468;SDS011;8345;50.902;6.956;2022-09-28T03:57:07;5.27;;;4.77;;
16468;SDS011;8345;50.902;6.956;2022-09-28T03:59:34;5.40;;;4.90;;
16468;SDS011;8345;50.902;6.956;2022-09-28T04:02:02;7.03;;;4.47;;
16468;SDS011;8345;50.902;6.956;2022-09-28T04:04:30;6.60;;;6.00;;
16468;SDS011;8345;50.902;6.956;2022-09-28T04:06:57;6.47;;;5.17;;
16468;SDS011;8345;50.902;6.956;2022-09-28T04:09:25;7.03;;;5.40;;
16468;SDS011;8345;50.902;6.956;2022-09-28T04:11:52;6.33;;;5.30;;
16468;SDS011;8345;50.902;6.956;2022-09-28T04:14:20;6.87;;;5.03;;
16468;SDS011;8345;50.902;6.956;2022-09-28T04:16:47;8.17;;;5.37;;
16468;SDS011;8345;50.902;6.956;2022-09-28T04:19:18;6.20;;;5.60;;
16468;SDS011;8345;50.902;6.956;2022-09-28T04:21:46;7.30;;;5.90;;
16468;SDS011;8345;50.902;6.956;2022-09-28T04:24:15;6.50;;;5.70;;
16468;SDS011;8345;50.902;6.956;2022-09-28T04:26:43;6.77;;;6.10;;
16468;SDS011;8345;50.902;6.956;2022-09-28T04:29:11;8.20;;;6.60;;
16468;SDS011;8345;50.902;6.956;2022-09-28T04:31:41;7.40;;;6.70;;
16468;SDS011;8345;50.902;6.956;2022-09-28T04:34:08;7.10;;;6.40;;
16468;SDS011;8345;50.902;6.956;2022-09-28T04:36:35;9.00;;;6.70;;
16468;SDS011;8345;50.902;6.956;2022-09-28T04:39:03;7.97;;;6.60;;
16468;SDS011;8345;50.902;6.956;2022-09-28T04:41:30;7.03;;;6.33;;
16468;SDS011;8345;50.902;6.956;2022-09-28T04:43:59;8.43;;;5.70;;
16468;SDS011;8345;50.902;6.956;2022-09-28T04:46:26;6.50;;;5.90;;
16468;SDS011;8345;50.902;6.956;2022-09-28T04:48:53;7.40;;;6.00;;
16468;SDS011;8345;50.902;6.956;2022-09-28T04:51:20;5.77;;;5.20;;
16468;SDS011;8345;50.902;6.956;2022-09-28T04:53:47;6.37;;;5.77;;
16468;SDS011;8345;50.902;6.956;2022-09-28T04:56:15;6.33;;;5.60;;
16468;SDS011;8345;50.902;6.956;2022-09-28T04:58:43;7.40;;;5.80;;
16468;SDS011;8345;50.902;6.956;2022-09-28T05:01:12;6.80;;;6.23;;
16468;SDS011;8345;50.902;6.956;2022-09-28T05:03:39;7.00;;;6.20;;
16468;SDS011;8345;50.902;6.956;2022-09-28T05:06:07;6.73;;;6.23;;
16468;SDS011;8345;50.902;6.956;2022-09-28T05:08:34;7.03;;;6.33;;
16468;SDS011;8345;50.902;6.956;2022-09-28T05:11:02;7.47;;;5.53;;
16468;SDS011;8345;50.902;6.956;2022-09-28T05:13:30;6.43;;;5.83;;
16468;SDS011;8345;50.902;6.956;2022-09-28T05:15:57;6.53;;;5.93;;
16468;SDS011;8345;50.902;6.956;2022-09-28T05:18:26;6.47;;;5.77;;
16468;SDS011;8345;50.902;6.956;2022-09-28T05:20:53;6.67;;;5.27;;
16468;SDS011;8345;50.902;6.956;2022-09-28T05:23:20;6.17;;;5.67;;
16468;SDS011;8345;50.902;6.956;2022-09-28T05:25:47;6.40;;;5.70;;
16468;SDS011;8345;50.902;6.956;2022-09-28T05:28:16;6.20;;;5.70;;
16468;SDS011;8345;50.902;6.956;2022-09-28T05:30:46;6.40;;;5.70;;
16468;SDS011;8345;50.902;6.956;2022-09-28T05:33:13;5.63;;;5.03;;
16468;SDS011;8345;50.902;6.956;2022-09-28T05:35:41;5.67;;;5.07;;
16468;SDS011;8345;50.902;6.956;2022-09-28T05:38:09;5.47;;;4.97;;
16468;SDS011;8345;50.902;6.956;2022-09-28T05:40:36;6.20;;;5.60;;
16468;SDS011;8345;50.902;6.956;2022-09-28T05:43:03;6.57;;;5.93;;
16468;SDS011;8345;50.902;6.956;2022-09-28T05:45:30;8.40;;;6.73;;
16468;SDS011;8345;50.902;6.956;2022-09-28T05:47:58;7.43;;;5.97;;
16468;SDS011;8345;50.902;6.956;2022-09-28T05:50:25;6.83;;;6.07;;
16468;SDS011;8345;50.902;6.956;2022-09-28T05:52:58;8.00;;;6.27;;
16468;SDS011;8345;50.902;6.956;2022-09-28T05:55:26;6.67;;;5.80;;
16468;SDS011;8345;50.902;6.956;2022-09-28T05:57:56;8.33;;;5.77;;
16468;SDS011;8345;50.902;6.956;2022-09-28T06:00:23;7.80;;;6.00;;
16468;SDS011;8345;50.902;6.956;2022-09-28T06:02:57;7.13;;;5.43;;
16468;SDS011;8345;50.902;6.956;2022-09-28T06:05:24;5.97;;;5.37;;
16468;SDS011;8345;50.902;6.956;2022-09-28T06:07:51;5.87;;;5.27;;
16468;SDS011;8345;50.902;6.956;2022-09-28T06:10:20;5.40;;;4.90;;
16468;SDS011;8345;50.902;6.956;2022-09-28T06:12:50;5.33;;;4.83;;
16468;SDS011;8345;50.902;6.956;2022-09-28T06:15:17;6.00;;;4.87;;
16468;SDS011;8345;50.902;6.956;2022-09-28T06:17:44;7.57;;;4.90;;
16468;SDS011;8345;50.902;6.956;2022-09-28T06:20:12;7.43;;;5.00;;
16468;SDS011;8345;50.902;6.956;2022-09-28T06:22:39;5.80;;;4.80;;
16468;SDS011;8345;50.902;6.956;2022-09-28T06:25:07;7.17;;;5.17;;
16468;SDS011;8345;50.902;6.956;2022-09-28T06:27:35;7.30;;;4.80;;
16468;SDS011;8345;50.902;6.956;2022-09-28T06:30:03;5.77;;;4.57;;
16468;SDS011;8345;50.902;6.956;2022-09-28T06:32:30;5.27;;;4.53;;
16468;SDS011;8345;50.902;6.956;2022-09-28T06:34:58;4.43;;;4.03;;
16468;SDS011;8345;50.902;6.956;2022-09-28T06:37:25;5.73;;;4.50;;
16468;SDS011;8345;50.902;6.956;2022-09-28T06:39:53;5.43;;;4.30;;
16468;SDS011;8345;50.902;6.956;2022-09-28T06:42:20;4.40;;;4.00;;
16468;SDS011;8345;50.902;6.956;2022-09-28T06:44:48;4.77;;;4.37;;
16468;SDS011;8345;50.902;6.956;2022-09-28T06:47:16;4.80;;;4.20;;
16468;SDS011;8345;50.902;6.956;2022-09-28T06:49:43;5.10;;;4.20;;
16468;SDS011;8345;50.902;6.956;2022-09-28T06:52:11;5.20;;;4.70;;
16468;SDS011;8345;50.902;6.956;2022-09-28T06:54:39;4.50;;;4.00;;
16468;SDS011;8345;50.902;6.956;2022-09-28T06:57:06;5.33;;;4.77;;
16468;SDS011;8345;50.902;6.956;2022-09-28T06:59:33;5.97;;;4.43;;
16468;SDS011;8345;50.902;6.956;2022-09-28T07:02:02;5.13;;;4.63;;
16468;SDS011;8345;50.902;6.956;2022-09-28T07:04:29;4.80;;;4.40;;
16468;SDS011;8345;50.902;6.956;2022-09-28T07:06:56;5.07;;;4.53;;
16468;SDS011;8345;50.902;6.956;2022-09-28T07:09:24;5.13;;;4.20;;
16468;SDS011;8345;50.902;6.956;2022-09-28T07:11:51;5.00;;;4.43;;
16468;SDS011;8345;50.902;6.956;2022-09-28T07:14:18;5.50;;;5.00;;
16468;SDS011;8345;50.902;6.956;2022-09-28T07:16:48;5.10;;;4.70;;
16468;SDS011;8345;50.902;6.956;2022-09-28T07:19:17;5.33;;;4.60;;
16468;SDS011;8345;50.902;6.956;2022-09-28T07:21:44;4.80;;;4.40;;
16468;SDS011;8345;50.902;6.956;2022-09-28T07:24:11;5.63;;;4.10;;
16468;SDS011;8345;50.902;6.956;2022-09-28T07:26:38;5.30;;;4.80;;
16468;SDS011;8345;50.902;6.956;2022-09-28T07:29:06;6.07;;;4.97;;
16468;SDS011;8345;50.902;6.956;2022-09-28T07:31:33;7.70;;;4.97;;
16468;SDS011;8345;50.902;6.956;2022-09-28T07:34:00;6.47;;;4.93;;
16468;SDS011;8345;50.902;6.956;2022-09-28T07:36:29;6.20;;;4.03;;
16468;SDS011;8345;50.902;6.956;2022-09-28T07:38:59;5.37;;;3.83;;
16468;SDS011;8345;50.902;6.956;2022-09-28T07:41:26;4.00;;;3.57;;
16468;SDS011;8345;50.902;6.956;2022-09-28T07:43:56;4.57;;;4.17;;
16468;SDS011;8345;50.902;6.956;2022-09-28T07:46:29;4.50;;;4.10;;
16468;SDS011;8345;50.902;6.956;2022-09-28T07:48:57;4.10;;;3.80;;
16468;SDS011;8345;50.902;6.956;2022-09-28T07:51:24;4.67;;;4.17;;
16468;SDS011;8345;50.902;6.956;2022-09-28T07:53:52;5.17;;;3.93;;
16468;SDS011;8345;50.902;6.956;2022-09-28T07:56:19;5.30;;;4.13;;
16468;SDS011;8345;50.902;6.956;2022-09-28T07:58:47;4.47;;;4.00;;
16468;SDS011;8345;50.902;6.956;2022-09-28T08:01:15;4.50;;;4.07;;
16468;SDS011;8345;50.902;6.956;2022-09-28T08:03:43;5.87;;;4.07;;
16468;SDS011;8345;50.902;6.956;2022-09-28T08:06:11;4.43;;;4.03;;
16468;SDS011;8345;50.902;6.956;2022-09-28T08:08:39;5.10;;;3.60;;
16468;SDS011;8345;50.902;6.956;2022-09-28T08:11:10;4.33;;;3.93;;
16468;SDS011;8345;50.902;6.956;2022-09-28T08:13:38;5.83;;;3.83;;
16468;SDS011;8345;50.902;6.956;2022-09-28T08:16:05;7.37;;;3.63;;
16468;SDS011;8345;50.902;6.956;2022-09-28T08:18:32;6.97;;;3.77;;
16468;SDS011;8345;50.902;6.956;2022-09-28T08:21:00;4.20;;;3.37;;
16468;SDS011;8345;50.902;6.956;2022-09-28T08:23:45;4.63;;;2.77;;
16468;SDS011;8345;50.902;6.956;2022-09-28T08:26:13;4.17;;;3.60;;
16468;SDS011;8345;50.902;6.956;2022-09-28T08:28:41;4.27;;;2.70;;
16468;SDS011;8345;50.902;6.956;2022-09-28T08:31:09;6.67;;;3.40;;
16468;SDS011;8345;50.902;6.956;2022-09-28T08:33:36;3.90;;;2.90;;
16468;SDS011;8345;50.902;6.956;2022-09-28T08:36:04;4.17;;;2.70;;
16468;SDS011;8345;50.902;6.956;2022-09-28T08:38:31;3.17;;;2.53;;
16468;SDS011;8345;50.902;6.956;2022-09-28T08:41:01;2.90;;;2.70;;
16468;SDS011;8345;50.902;6.956;2022-09-28T08:43:43;4.17;;;2.80;;
16468;SDS011;8345;50.902;6.956;2022-09-28T08:46:14;2.87;;;2.60;;
16468;SDS011;8345;50.902;6.956;2022-09-28T08:48:46;3.50;;;2.50;;
16468;SDS011;8345;50.902;6.956;2022-09-28T08:51:18;4.50;;;2.90;;
16468;SDS011;8345;50.902;6.956;2022-09-28T08:53:47;8.17;;;4.63;;
16468;SDS011;8345;50.902;6.956;2022-09-28T08:56:20;3.63;;;2.93;;
16468;SDS011;8345;50.902;6.956;2022-09-28T08:58:53;4.30;;;3.03;;
16468;SDS011;8345;50.902;6.956;2022-09-28T09:01:21;4.33;;;2.57;;
16468;SDS011;8345;50.902;6.956;2022-09-28T09:03:49;2.93;;;2.63;;
16468;SDS011;8345;50.902;6.956;2022-09-28T09:06:18;3.53;;;2.00;;
16468;SDS011;8345;50.902;6.956;2022-09-28T09:08:55;3.60;;;2.10;;
16468;SDS011;8345;50.902;6.956;2022-09-28T09:11:29;4.50;;;1.90;;
16468;SDS011;8345;50.902;6.956;2022-09-28T09:14:06;3.33;;;1.60;;
16468;SDS011;8345;50.902;6.956;2022-09-28T09:16:40;2.03;;;1.53;;
16468;SDS011;8345;50.902;6.956;2022-09-28T09:19:13;3.63;;;2.20;;
16468;SDS011;8345;50.902;6.956;2022-09-28T09:21:41;4.50;;;1.80;;
16468;SDS011;8345;50.902;6.956;2022-09-28T09:24:16;4.03;;;1.30;;
16468;SDS011;8345;50.902;6.956;2022-09-28T09:26:45;2.30;;;1.50;;
16468;SDS011;8345;50.902;6.956;2022-09-28T09:29:22;3.33;;;1.33;;
16468;SDS011;8345;50.902;6.956;2022-09-28T09:31:57;2.10;;;1.40;;
16468;SDS011;8345;50.902;6.956;2022-09-28T09:34:40;1.93;;;1.20;;
16468;SDS011;8345;50.902;6.956;2022-09-28T09:37:20;3.20;;;1.60;;
16468;SDS011;8345;50.902;6.956;2022-09-28T09:39:56;3.77;;;1.20;;
16468;SDS011;8345;50.902;6.956;2022-09-28T09:42:30;2.97;;;1.30;;
16468;SDS011;8345;50.902;6.956;2022-09-28T09:45:05;2.43;;;1.63;;
16468;SDS011;8345;50.902;6.956;2022-09-28T09:47:39;2.43;;;1.50;;
16468;SDS011;8345;50.902;6.956;2022-09-28T09:50:09;2.83;;;1.17;;
16468;SDS011;8345;50.902;6.956;2022-09-28T09:52:41;4.47;;;1.50;;
16468;SDS011;8345;50.902;6.956;2022-09-28T09:55:13;3.43;;;1.40;;
16468;SDS011;8345;50.902;6.956;2022-09-28T09:57:41;2.80;;;1.37;;
16468;SDS011;8345;50.902;6.956;2022-09-28T10:00:13;1.90;;;1.40;;
16468;SDS011;8345;50.902;6.956;2022-09-28T10:02:41;4.40;;;1.10;;
16468;SDS011;8345;50.902;6.956;2022-09-28T10:05:14;2.23;;;1.20;;
16468;SDS011;8345;50.902;6.956;2022-09-28T10:07:43;1.97;;;1.27;;
16468;SDS011;8345;50.902;6.956;2022-09-28T10:10:14;2.03;;;1.00;;
16468;SDS011;8345;50.902;6.956;2022-09-28T10:12:43;1.47;;;1.17;;
16468;SDS011;8345;50.902;6.956;2022-09-28T10:15:14;3.27;;;1.27;;
16468;SDS011;8345;50.902;6.956;2022-09-28T10:17:41;1.63;;;0.90;;
16468;SDS011;8345;50.902;6.956;2022-09-28T10:20:10;2.17;;;1.10;;
16468;SDS011;8345;50.902;6.956;2022-09-28T10:22:37;1.93;;;0.87;;
16468;SDS011;8345;50.902;6.956;2022-09-28T10:25:06;1.93;;;1.20;;
16468;SDS011;8345;50.902;6.956;2022-09-28T10:27:34;3.17;;;1.40;;
16468;SDS011;8345;50.902;6.956;2022-09-28T10:30:09;3.23;;;1.20;;
16468;SDS011;8345;50.902;6.956;2022-09-28T10:32:40;2.50;;;1.30;;
16468;SDS011;8345;50.902;6.956;2022-09-28T10:35:21;2.30;;;1.30;;
16468;SDS011;8345;50.902;6.956;2022-09-28T10:37:50;1.20;;;1.10;;
16468;SDS011;8345;50.902;6.956;2022-09-28T10:40:30;2.50;;;1.70;;
16468;SDS011;8345;50.902;6.956;2022-09-28T10:43:00;2.47;;;1.23;;
16468;SDS011;8345;50.902;6.956;2022-09-28T10:45:27;1.60;;;1.20;;
16468;SDS011;8345;50.902;6.956;2022-09-28T10:48:00;1.93;;;1.07;;
16468;SDS011;8345;50.902;6.956;2022-09-28T10:50:28;1.60;;;1.20;;
16468;SDS011;8345;50.902;6.956;2022-09-28T10:52:58;2.80;;;1.33;;
16468;SDS011;8345;50.902;6.956;2022-09-28T10:55:35;1.60;;;1.17;;
16468;SDS011;8345;50.902;6.956;2022-09-28T10:58:16;2.83;;;1.30;;
16468;SDS011;8345;50.902;6.956;2022-09-28T11:00:49;1.93;;;1.47;;
16468;SDS011;8345;50.902;6.956;2022-09-28T11:03:19;3.63;;;1.40;;
16468;SDS011;8345;50.902;6.956;2022-09-28T11:05:55;2.33;;;1.33;;
16468;SDS011;8345;50.902;6.956;2022-09-28T11:08:24;2.47;;;1.10;;
16468;SDS011;8345;50.902;6.956;2022-09-28T11:11:02;2.10;;;1.20;;
16468;SDS011;8345;50.902;6.956;2022-09-28T11:13:29;3.47;;;1.50;;
16468;SDS011;8345;50.902;6.956;2022-09-28T11:15:57;2.27;;;1.30;;
16468;SDS011;8345;50.902;6.956;2022-09-28T11:18:26;1.80;;;1.30;;
16468;SDS011;8345;50.902;6.956;2022-09-28T11:21:08;4.13;;;1.10;;
16468;SDS011;8345;50.902;6.956;2022-09-28T11:23:36;3.13;;;1.60;;
16468;SDS011;8345;50.902;6.956;2022-09-28T11:26:05;1.93;;;1.30;;
16468;SDS011;8345;50.902;6.956;2022-09-28T11:28:34;2.20;;;1.10;;
16468;SDS011;8345;50.902;6.956;2022-09-28T11:31:02;2.97;;;1.20;;
16468;SDS011;8345;50.902;6.956;2022-09-28T11:33:33;2.23;;;1.70;;
16468;SDS011;8345;50.902;6.956;2022-09-28T11:36:08;1.73;;;1.00;;
16468;SDS011;8345;50.902;6.956;2022-09-28T11:38:40;2.80;;;1.60;;
16468;SDS011;8345;50.902;6.956;2022-09-28T11:41:16;3.23;;;1.50;;
16468;SDS011;8345;50.902;6.956;2022-09-28T11:43:56;2.27;;;1.90;;
16468;SDS011;8345;50.902;6.956;2022-09-28T11:46:29;2.90;;;1.30;;
16468;SDS011;8345;50.902;6.956;2022-09-28T11:49:01;3.33;;;1.63;;
16468;SDS011;8345;50.902;6.956;2022-09-28T11:51:30;2.17;;;1.60;;
16468;SDS011;8345;50.902;6.956;2022-09-28T11:53:58;3.53;;;1.20;;
16468;SDS011;8345;50.902;6.956;2022-09-28T11:56:30;1.90;;;1.13;;
16468;SDS011;8345;50.902;6.956;2022-09-28T11:58:59;3.23;;;0.93;;
16468;SDS011;8345;50.902;6.956;2022-09-28T12:01:31;2.93;;;1.20;;
16468;SDS011;8345;50.902;6.956;2022-09-28T12:04:03;1.40;;;0.97;;
16468;SDS011;8345;50.902;6.956;2022-09-28T12:06:33;3.83;;;1.03;;
16468;SDS011;8345;50.902;6.956;2022-09-28T12:09:04;1.40;;;1.00;;
16468;SDS011;8345;50.902;6.956;2022-09-28T12:11:34;2.80;;;0.97;;
16468;SDS011;8345;50.902;6.956;2022-09-28T12:14:03;2.50;;;0.80;;
16468;SDS011;8345;50.902;6.956;2022-09-28T12:16:33;2.57;;;1.00;;
16468;SDS011;8345;50.902;6.956;2022-09-28T12:19:03;1.20;;;1.00;;
16468;SDS011;8345;50.902;6.956;2022-09-28T12:21:35;2.53;;;0.90;;
16468;SDS011;8345;50.902;6.956;2022-09-28T12:24:06;2.40;;;1.10;;
16468;SDS011;8345;50.902;6.956;2022-09-28T12:26:40;1.67;;;0.80;;
16468;SDS011;8345;50.902;6.956;2022-09-28T12:29:09;2.30;;;1.00;;
16468;SDS011;8345;50.902;6.956;2022-09-28T12:31:39;1.10;;;0.80;;
16468;SDS011;8345;50.902;6.956;2022-09-28T12:34:10;1.67;;;0.90;;
16468;SDS011;8345;50.902;6.956;2022-09-28T12:36:40;1.53;;;0.83;;
16468;SDS011;8345;50.902;6.956;2022-09-28T12:39:14;1.10;;;0.70;;
16468;SDS011;8345;50.902;6.956;2022-09-28T12:41:51;0.90;;;0.77;;
16468;SDS011;8345;50.902;6.956;2022-09-28T12:44:26;3.03;;;1.07;;
16468;SDS011;8345;50.902;6.956;2022-09-28T12:47:03;1.83;;;0.90;;
16468;SDS011;8345;50.902;6.956;2022-09-28T12:49:38;1.90;;;1.20;;
16468;SDS011;8345;50.902;6.956;2022-09-28T12:52:15;1.33;;;1.10;;
16468;SDS011;8345;50.902;6.956;2022-09-28T12:57:39;3.13;;;1.20;;
16468;SDS011;8345;50.902;6.956;2022-09-28T13:00:10;2.57;;;1.40;;
16468;SDS011;8345;50.902;6.956;2022-09-28T13:05:57;1.77;;;1.50;;
16468;SDS011;8345;50.902;6.956;2022-09-28T13:08:37;2.43;;;1.27;;
16468;SDS011;8345;50.902;6.956;2022-09-28T13:11:07;1.33;;;1.20;;
16468;SDS011;8345;50.902;6.956;2022-09-28T13:13:41;2.90;;;1.60;;
16468;SDS011;8345;50.902;6.956;2022-09-28T13:16:13;2.00;;;1.20;;
16468;SDS011;8345;50.902;6.956;2022-09-28T13:18:46;2.13;;;1.27;;
16468;SDS011;8345;50.902;6.956;2022-09-28T13:21:19;2.20;;;1.20;;
16468;SDS011;8345;50.902;6.956;2022-09-28T13:23:50;1.30;;;1.07;;
16468;SDS011;8345;50.902;6.956;2022-09-28T13:26:20;2.60;;;1.40;;
16468;SDS011;8345;50.902;6.956;2022-09-28T13:28:48;2.90;;;1.20;;
16468;SDS011;8345;50.902;6.956;2022-09-28T13:31:19;3.33;;;1.03;;
16468;SDS011;8345;50.902;6.956;2022-09-28T13:33:48;2.30;;;1.63;;
16468;SDS011;8345;50.902;6.956;2022-09-28T13:39:13;2.20;;;1.60;;
16468;SDS011;8345;50.902;6.956;2022-09-28T13:41:54;1.80;;;1.17;;
16468;SDS011;8345;50.902;6.956;2022-09-28T13:44:31;2.83;;;1.07;;
16468;SDS011;8345;50.902;6.956;2022-09-28T13:47:05;2.43;;;1.20;;
16468;SDS011;8345;50.902;6.956;2022-09-28T13:49:38;2.80;;;1.10;;
16468;SDS011;8345;50.902;6.956;2022-09-28T13:52:11;2.93;;;1.10;;
16468;SDS011;8345;50.902;6.956;2022-09-28T13:54:44;1.80;;;1.20;;
16468;SDS011;8345;50.902;6.956;2022-09-28T13:57:16;1.60;;;1.20;;
16468;SDS011;8345;50.902;6.956;2022-09-28T13:59:50;2.17;;;1.33;;
16468;SDS011;8345;50.902;6.956;2022-09-28T14:02:21;1.87;;;1.17;;
16468;SDS011;8345;50.902;6.956;2022-09-28T14:04:51;1.27;;;0.97;;
16468;SDS011;8345;50.902;6.956;2022-09-28T14:07:20;1.47;;;1.20;;
16468;SDS011;8345;50.902;6.956;2022-09-28T14:09:49;2.37;;;1.10;;
16468;SDS011;8345;50.902;6.956;2022-09-28T14:12:43;3.07;;;1.13;;
16468;SDS011;8345;50.902;6.956;2022-09-28T14:17:58;1.80;;;1.20;;
16468;SDS011;8345;50.902;6.956;2022-09-28T14:20:27;3.30;;;1.20;;
16468;SDS011;8345;50.902;6.956;2022-09-28T14:23:03;4.57;;;2.30;;
16468;SDS011;8345;50.902;6.956;2022-09-28T14:25:37;3.03;;;1.40;;
16468;SDS011;8345;50.902;6.956;2022-09-28T14:28:12;1.73;;;1.00;;
16468;SDS011;8345;50.902;6.956;2022-09-28T14:30:45;2.23;;;1.10;;
16468;SDS011;8345;50.902;6.956;2022-09-28T14:33:20;2.90;;;2.23;;
16468;SDS011;8345;50.902;6.956;2022-09-28T14:35:48;3.07;;;1.50;;
16468;SDS011;8345;50.902;6.956;2022-09-28T14:38:16;3.17;;;1.40;;
16468;SDS011;8345;50.902;6.956;2022-09-28T14:41:03;2.37;;;1.40;;
16468;SDS011;8345;50.902;6.956;2022-09-28T14:43:34;2.33;;;2.07;;
16468;SDS011;8345;50.902;6.956;2022-09-28T14:49:00;3.43;;;1.90;;
16468;SDS011;8345;50.902;6.956;2022-09-28T14:51:44;3.07;;;1.87;;
16468;SDS011;8345;50.902;6.956;2022-09-28T14:54:22;2.47;;;1.57;;
16468;SDS011;8345;50.902;6.956;2022-09-28T14:56:55;2.40;;;1.60;;
16468;SDS011;8345;50.902;6.956;2022-09-28T14:59:24;3.47;;;1.90;;
16468;SDS011;8345;50.902;6.956;2022-09-28T15:01:54;2.23;;;1.60;;
16468;SDS011;8345;50.902;6.956;2022-09-28T15:04:26;3.73;;;1.30;;
16468;SDS011;8345;50.902;6.956;2022-09-28T15:06:54;3.83;;;2.10;;
16468;SDS011;8345;50.902;6.956;2022-09-28T15:09:27;2.50;;;1.70;;
16468;SDS011;8345;50.902;6.956;2022-09-28T15:12:00;4.73;;;1.90;;
16468;SDS011;8345;50.902;6.956;2022-09-28T15:14:28;2.97;;;1.70;;
16468;SDS011;8345;50.902;6.956;2022-09-28T15:16:56;3.20;;;2.00;;
16468;SDS011;8345;50.902;6.956;2022-09-28T15:19:25;2.53;;;1.70;;
16468;SDS011;8345;50.902;6.956;2022-09-28T15:21:56;3.33;;;1.43;;
16468;SDS011;8345;50.902;6.956;2022-09-28T15:24:27;3.07;;;1.10;;
16468;SDS011;8345;50.902;6.956;2022-09-28T15:26:55;2.00;;;1.20;;
16468;SDS011;8345;50.902;6.956;2022-09-28T15:29:24;2.33;;;1.10;;
16468;SDS011;8345;50.902;6.956;2022-09-28T15:31:55;3.13;;;1.00;;
16468;SDS011;8345;50.902;6.956;2022-09-28T15:34:26;2.80;;;1.70;;
16468;SDS011;8345;50.902;6.956;2022-09-28T15:37:10;1.90;;;0.87;;
16468;SDS011;8345;50.902;6.956;2022-09-28T15:39:39;0.80;;;0.70;;